createdAt,value
2022-10-17T00:00:33.279Z,4.33
2022-10-17T00:05:56.137Z,4.80
2022-10-17T00:11:23.939Z,3.73
2022-10-17T00:16:46.263Z,3.97
2022-10-17T00:22:08.879Z,4.80
2022-10-17T00:27:34.330Z,4.63
2022-10-17T00:32:56.699Z,4.30
2022-10-17T00:38:19.291Z,3.90
2022-10-17T00:43:56.597Z,3.80
2022-10-17T00:49:19.731Z,4.00
2022-10-17T00:54:46.519Z,4.10
2022-10-17T01:00:11.024Z,4.27
2022-10-17T01:05:33.456Z,4.30
2022-10-17T01:11:21.505Z,4.37
2022-10-17T01:16:49.097Z,4.23
2022-10-17T01:22:34.391Z,4.13
2022-10-17T01:28:02.200Z,5.27
2022-10-17T01:33:52.930Z,4.27
2022-10-17T01:39:34.440Z,3.87
2022-10-17T01:45:10.528Z,3.63
2022-10-17T01:50:44.140Z,3.60
2022-10-17T01:56:09.387Z,3.83
2022-10-17T02:01:33.014Z,3.70
2022-10-17T02:06:56.035Z,3.80
2022-10-17T02:12:43.175Z,4.00
2022-10-17T02:18:25.747Z,3.60
2022-10-17T02:24:18.769Z,3.30
2022-10-17T02:29:48.477Z,3.33
2022-10-17T02:35:15.612Z,3.70
2022-10-17T02:40:40.803Z,3.70
2022-10-17T02:46:03.513Z,3.40
2022-10-17T02:51:50.231Z,4.37
2022-10-17T02:57:18.956Z,3.70
2022-10-17T03:02:47.275Z,3.60
2022-10-17T03:08:09.485Z,3.77
2022-10-17T03:13:34.955Z,3.83
2022-10-17T03:19:00.421Z,4.17
2022-10-17T03:24:23.108Z,3.90
2022-10-17T03:29:45.985Z,4.30
2022-10-17T03:35:14.874Z,4.90
2022-10-17T03:40:40.632Z,4.83
2022-10-17T03:46:04.013Z,5.97
2022-10-17T03:51:27.117Z,5.80
2022-10-17T04:02:20.005Z,6.27
2022-10-17T04:07:42.368Z,4.87
2022-10-17T04:13:06.561Z,5.33
2022-10-17T04:18:29.627Z,6.33
2022-10-17T04:24:00.045Z,5.40
2022-10-17T04:29:45.401Z,5.87
2022-10-17T04:35:15.140Z,5.87
2022-10-17T04:40:42.854Z,5.70
2022-10-17T04:46:08.358Z,6.00
2022-10-17T04:51:31.280Z,6.97
2022-10-17T04:57:06.963Z,7.43
2022-10-17T05:02:29.851Z,7.10
2022-10-17T05:07:52.915Z,6.20
2022-10-17T05:13:18.956Z,6.50
2022-10-17T05:18:41.405Z,6.67
2022-10-17T05:24:09.149Z,6.47
2022-10-17T05:29:31.513Z,5.83
2022-10-17T05:35:04.470Z,5.83
2022-10-17T05:40:28.251Z,5.60
2022-10-17T05:45:51.023Z,6.27
2022-10-17T05:51:16.114Z,6.23
2022-10-17T05:56:38.975Z,6.90
2022-10-17T06:02:01.557Z,5.97
2022-10-17T06:07:25.379Z,6.40
2022-10-17T06:12:48.529Z,6.53
2022-10-17T06:18:12.001Z,6.20
2022-10-17T06:23:34.858Z,6.13
2022-10-17T06:29:09.003Z,6.17
2022-10-17T06:34:37.271Z,6.97
2022-10-17T06:39:59.988Z,6.70
2022-10-17T06:45:22.376Z,7.10
2022-10-17T06:51:11.507Z,7.13
2022-10-17T06:56:45.660Z,7.27
2022-10-17T07:02:24.350Z,7.47
2022-10-17T07:07:50.982Z,7.40
2022-10-17T07:13:14.680Z,8.10
2022-10-17T07:18:37.424Z,7.73
2022-10-17T07:23:59.857Z,7.83
2022-10-17T07:29:22.511Z,7.43
2022-10-17T07:34:53.719Z,7.90
2022-10-17T07:40:15.997Z,7.80
2022-10-17T07:45:38.852Z,7.23
2022-10-17T07:51:05.346Z,7.40
2022-10-17T07:56:29.648Z,7.57
2022-10-17T08:01:55.069Z,7.30
2022-10-17T08:07:23.013Z,7.10
2022-10-17T08:12:47.980Z,6.63
2022-10-17T08:18:10.420Z,7.03
2022-10-17T08:23:32.787Z,7.03
2022-10-17T08:28:55.499Z,5.93
2022-10-17T08:34:18.331Z,5.30
2022-10-17T08:39:44.658Z,5.43
2022-10-17T08:45:18.630Z,5.57
2022-10-17T08:50:47.564Z,4.83
2022-10-17T08:56:43.941Z,4.83
2022-10-17T09:02:34.461Z,4.47
2022-10-17T09:08:33.252Z,4.63
2022-10-17T09:14:22.289Z,4.25
2022-10-17T09:20:04.822Z,4.22
2022-10-17T09:25:28.462Z,4.07
2022-10-17T09:30:58.621Z,3.92
2022-10-17T09:36:36.005Z,3.72
2022-10-17T09:42:00.871Z,3.83
2022-10-17T09:47:26.740Z,4.07
2022-10-17T09:52:50.828Z,3.85
2022-10-17T09:58:13.183Z,3.90
2022-10-17T10:03:35.555Z,3.83
2022-10-17T10:08:58.824Z,3.80
2022-10-17T10:14:36.163Z,3.78
2022-10-17T10:19:59.102Z,4.43
2022-10-17T10:25:21.784Z,3.40
2022-10-17T10:30:49.595Z,3.63
2022-10-17T10:36:12.360Z,3.67
2022-10-17T10:41:47.905Z,3.70
2022-10-17T10:47:22.064Z,3.92
2022-10-17T10:52:54.487Z,3.95
2022-10-17T10:58:27.700Z,3.83
2022-10-17T11:04:01.249Z,3.72
2022-10-17T11:09:46.642Z,3.83
2022-10-17T11:15:21.016Z,3.70
2022-10-17T11:20:53.244Z,3.90
2022-10-17T11:26:34.773Z,3.55
2022-10-17T11:32:04.065Z,3.83
2022-10-17T11:37:34.513Z,4.53
2022-10-17T11:43:04.180Z,4.20
2022-10-17T11:48:43.136Z,4.50
2022-10-17T11:54:15.443Z,4.15
2022-10-17T11:59:43.597Z,4.28
2022-10-17T12:05:07.083Z,4.38
2022-10-17T12:10:54.920Z,4.20
2022-10-17T12:16:20.433Z,4.18
2022-10-17T12:21:57.328Z,4.30
2022-10-17T12:27:32.781Z,4.47
2022-10-17T12:33:05.536Z,5.15
2022-10-17T12:38:28.714Z,4.75
2022-10-17T12:43:53.256Z,4.85
2022-10-17T12:49:37.118Z,5.18
2022-10-17T12:55:12.053Z,4.75
2022-10-17T13:01:18.979Z,4.60
2022-10-17T13:06:44.877Z,4.72
2022-10-17T13:12:14.874Z,4.38
2022-10-17T13:17:40.687Z,4.72
2022-10-17T13:23:05.751Z,4.60
2022-10-17T13:28:29.237Z,4.63
2022-10-17T13:33:57.193Z,4.60
2022-10-17T13:39:38.248Z,4.63
2022-10-17T13:45:28.013Z,4.97
2022-10-17T13:50:53.798Z,4.80
2022-10-17T13:56:29.520Z,4.50
2022-10-17T14:01:53.092Z,5.05
2022-10-17T14:07:34.223Z,4.68
2022-10-17T14:13:01.789Z,4.43
2022-10-17T14:18:35.895Z,4.57
2022-10-17T14:24:28.810Z,6.90
2022-10-17T14:29:53.753Z,5.18
2022-10-17T14:35:37.374Z,5.15
2022-10-17T14:41:30.624Z,5.82
2022-10-17T14:46:50.921Z,5.20
2022-10-17T14:52:18.356Z,5.30
2022-10-17T14:57:44.244Z,5.15
2022-10-17T15:03:06.918Z,4.93
2022-10-17T15:08:29.247Z,5.20
2022-10-17T15:13:52.421Z,5.18
2022-10-17T15:19:15.058Z,5.22
2022-10-17T15:24:37.249Z,5.68
2022-10-17T15:29:59.794Z,6.18
2022-10-17T15:35:22.842Z,5.45
2022-10-17T15:40:48.930Z,6.00
2022-10-17T15:46:32.698Z,5.25
2022-10-17T15:51:55.416Z,5.72
2022-10-17T15:57:24.545Z,5.00
2022-10-17T16:02:47.663Z,5.93
2022-10-17T16:08:10.285Z,5.90
2022-10-17T16:13:32.980Z,5.32
2022-10-17T16:18:55.979Z,6.20
2022-10-17T16:24:18.940Z,6.13
2022-10-17T16:29:41.348Z,6.05
2022-10-17T16:35:04.839Z,5.55
2022-10-17T16:40:27.196Z,5.97
2022-10-17T16:45:49.675Z,5.90
2022-10-17T16:51:13.541Z,5.78
2022-10-17T16:56:36.107Z,5.97
2022-10-17T17:01:58.476Z,5.88
2022-10-17T17:07:21.950Z,7.35
2022-10-17T17:12:44.390Z,6.80
2022-10-17T17:18:07.182Z,7.45
2022-10-17T17:23:30.679Z,6.68
2022-10-17T17:28:56.022Z,5.90
2022-10-17T17:34:18.577Z,7.00
2022-10-17T17:39:41.102Z,5.85
2022-10-17T17:45:04.252Z,6.00
2022-10-17T17:50:26.631Z,6.55
2022-10-17T17:56:00.214Z,7.55
2022-10-17T18:01:24.547Z,8.20
2022-10-17T18:06:46.940Z,7.75
2022-10-17T18:12:09.674Z,7.30
2022-10-17T18:17:31.877Z,6.80
2022-10-17T18:22:54.329Z,6.72
2022-10-17T18:28:16.907Z,6.32
2022-10-17T18:33:40.041Z,6.65
2022-10-17T18:39:03.143Z,6.18
2022-10-17T18:44:25.300Z,7.38
2022-10-17T18:49:48.427Z,6.88
2022-10-17T18:55:10.992Z,7.60
2022-10-17T19:00:33.374Z,7.68
2022-10-17T19:05:57.826Z,8.00
2022-10-17T19:11:25.171Z,8.18
2022-10-17T19:16:51.136Z,8.23
2022-10-17T19:22:13.283Z,8.50
2022-10-17T19:27:35.719Z,11.50
2022-10-17T19:32:58.017Z,10.90
2022-10-17T19:38:20.398Z,12.83
2022-10-17T19:43:44.124Z,13.37
2022-10-17T19:49:07.178Z,12.23
2022-10-17T19:54:29.448Z,8.67
2022-10-17T19:59:53.735Z,9.03
2022-10-17T20:05:19.376Z,9.40
2022-10-17T20:10:43.456Z,8.10
2022-10-17T20:16:07.822Z,8.57
2022-10-17T20:21:33.059Z,8.30
2022-10-17T20:26:55.258Z,7.77
2022-10-17T20:32:17.436Z,8.50
2022-10-17T20:37:42.515Z,9.47
2022-10-17T20:43:07.680Z,8.07
2022-10-17T20:48:31.045Z,8.73
2022-10-17T20:53:53.722Z,8.90
2022-10-17T20:59:17.676Z,8.73
2022-10-17T21:04:46.404Z,8.40
2022-10-17T21:10:24.034Z,8.87
2022-10-17T21:15:52.530Z,8.87
2022-10-17T21:21:26.686Z,10.03
2022-10-17T21:26:53.607Z,9.67
2022-10-17T21:32:31.791Z,9.77
2022-10-17T21:37:58.207Z,9.87
2022-10-17T21:43:20.785Z,8.90
2022-10-17T21:48:44.000Z,9.77
2022-10-17T21:54:06.624Z,10.17
2022-10-17T21:59:28.990Z,9.80
2022-10-17T22:04:50.986Z,9.13
2022-10-17T22:10:13.167Z,11.00
2022-10-17T22:15:35.656Z,10.73
2022-10-17T22:21:08.657Z,10.60
2022-10-17T22:26:32.453Z,10.80
2022-10-17T22:31:54.911Z,11.73
2022-10-17T22:37:17.156Z,11.07
2022-10-17T22:42:39.570Z,11.33
2022-10-17T22:48:02.075Z,12.33
2022-10-17T22:53:26.755Z,13.03
2022-10-17T22:58:50.047Z,11.50
2022-10-17T23:04:12.314Z,12.63
2022-10-17T23:09:34.472Z,12.27
2022-10-17T23:14:56.815Z,12.67
2022-10-17T23:20:18.985Z,13.60
2022-10-17T23:25:42.216Z,13.03
2022-10-17T23:31:18.183Z,14.50
2022-10-17T23:36:40.663Z,13.13
2022-10-17T23:42:02.873Z,13.90
2022-10-17T23:47:25.047Z,13.60
2022-10-17T23:52:47.645Z,13.30
2022-10-17T23:58:09.783Z,12.57
